KMPZ/MPZ METAR and TAF weather

Enter ICAO airport designator
Station Type Date Time Source
KMPZ METAR 2021/05/11 01:35 UTC NOAA

KMPZ 110135Z AUTO 00000KT 10SM BKN065 BKN075 13/08 A3014 RMK AO2


Station Type Date Time Source
KMPZ Decoded METAR 2021/05/11 01:35 UTC NOAA

Mount Pleasant, Mount Pleasant Municipal Airport, IA, United States (KMPZ) 40-56-48N 091-30-40W
May 10, 2021 - 09:35 PM EDT / 2021.05.11 0135 UTC
Wind: Calm:0
Visibility: 10 mile(s):0
Sky conditions: mostly cloudy
Temperature: 55 F (13 C)
Dew Point: 46 F (8 C)
Relative Humidity: 71%
Pressure (altimeter): 30.14 in. Hg (1020 hPa)
ob: KMPZ 110135Z AUTO 00000KT 10SM BKN065 BKN075 13/08 A3014 RMK AO2
cycle: 1

Station Type Date Time Source
KMPZ TAF UTC NOAA

Error!

Example: see airport list